sensor_id;sensor_type;location;lat;lon;timestamp;pressure;altitude;pressure_sealevel;temperature;humidity
86680;BME280;77423;53.554;9.916;2024-03-23T00:51:19;100461.97;;;12.30;60.02
86680;BME280;77423;53.554;9.916;2024-03-23T00:53:45;100442.56;;;12.95;59.08
86680;BME280;77423;53.554;9.916;2024-03-23T00:56:10;100450.63;;;12.27;60.42
86680;BME280;77423;53.554;9.916;2024-03-23T00:58:36;100447.16;;;12.25;60.45
86680;BME280;77423;53.554;9.916;2024-03-23T01:01:01;100444.50;;;12.54;59.60
86680;BME280;77423;53.554;9.916;2024-03-23T01:03:29;100447.16;;;12.19;60.34
86680;BME280;77423;53.554;9.916;2024-03-23T01:05:54;100432.34;;;12.22;60.68
86680;BME280;77423;53.554;9.916;2024-03-23T01:08:19;100430.63;;;12.01;61.77
86680;BME280;77423;53.554;9.916;2024-03-23T01:10:56;100426.19;;;12.46;60.20
86680;BME280;77423;53.554;9.916;2024-03-23T01:13:22;100427.09;;;12.28;60.32
86680;BME280;77423;53.554;9.916;2024-03-23T01:15:49;100437.63;;;12.10;60.91
86680;BME280;77423;53.554;9.916;2024-03-23T01:18:14;100431.50;;;11.83;61.40
86680;BME280;77423;53.554;9.916;2024-03-23T01:20:39;100422.78;;;11.89;61.85
86680;BME280;77423;53.554;9.916;2024-03-23T01:23:04;100415.84;;;11.74;62.61
86680;BME280;77423;53.554;9.916;2024-03-23T01:25:30;100411.50;;;11.59;62.20
86680;BME280;77423;53.554;9.916;2024-03-23T01:27:55;100412.38;;;12.04;61.25
86680;BME280;77423;53.554;9.916;2024-03-23T01:30:20;100415.84;;;11.63;62.42
86680;BME280;77423;53.554;9.916;2024-03-23T01:32:46;100416.69;;;11.26;63.78
86680;BME280;77423;53.554;9.916;2024-03-23T01:35:12;100416.69;;;11.71;62.29
86680;BME280;77423;53.554;9.916;2024-03-23T01:37:37;100407.13;;;11.76;62.32
86680;BME280;77423;53.554;9.916;2024-03-23T01:40:03;100395.81;;;11.99;62.40
86680;BME280;77423;53.554;9.916;2024-03-23T01:42:29;100400.16;;;11.97;61.77
86680;BME280;77423;53.554;9.916;2024-03-23T01:44:54;100399.25;;;12.20;61.13
86680;BME280;77423;53.554;9.916;2024-03-23T01:47:19;100389.69;;;11.94;61.54
86680;BME280;77423;53.554;9.916;2024-03-23T01:49:45;100387.13;;;11.58;62.26
86680;BME280;77423;53.554;9.916;2024-03-23T01:52:10;100383.63;;;11.79;62.28
86680;BME280;77423;53.554;9.916;2024-03-23T01:54:36;100375.75;;;12.20;61.36
86680;BME280;77423;53.554;9.916;2024-03-23T01:57:01;100371.38;;;12.23;60.98
86680;BME280;77423;53.554;9.916;2024-03-23T01:59:27;100374.06;;;11.78;61.73
86680;BME280;77423;53.554;9.916;2024-03-23T02:01:52;100367.09;;;11.99;61.61
86680;BME280;77423;53.554;9.916;2024-03-23T02:04:17;100354.72;;;12.46;59.75
86680;BME280;77423;53.554;9.916;2024-03-23T02:06:42;100359.22;;;11.93;60.94
86680;BME280;77423;53.554;9.916;2024-03-23T02:09:08;100366.22;;;11.54;62.22
86680;BME280;77423;53.554;9.916;2024-03-23T02:11:33;100366.25;;;11.51;62.12
86680;BME280;77423;53.554;9.916;2024-03-23T02:13:58;100362.72;;;11.87;61.95
86680;BME280;77423;53.554;9.916;2024-03-23T02:16:24;100357.53;;;11.62;62.71
86680;BME280;77423;53.554;9.916;2024-03-23T02:18:49;100365.28;;;10.77;63.82
86680;BME280;77423;53.554;9.916;2024-03-23T02:21:15;100347.06;;;11.49;63.09
86680;BME280;77423;53.554;9.916;2024-03-23T02:23:40;100334.91;;;11.58;62.41
86680;BME280;77423;53.554;9.916;2024-03-23T02:26:06;100341.84;;;11.59;62.29
86680;BME280;77423;53.554;9.916;2024-03-23T02:28:31;100329.59;;;12.16;60.38
86680;BME280;77423;53.554;9.916;2024-03-23T02:30:56;100328.81;;;11.73;61.34
86680;BME280;77423;53.554;9.916;2024-03-23T02:33:22;100326.22;;;11.53;61.90
86680;BME280;77423;53.554;9.916;2024-03-23T02:35:47;100327.03;;;12.03;61.28
86680;BME280;77423;53.554;9.916;2024-03-23T02:38:13;100322.69;;;11.80;61.63
86680;BME280;77423;53.554;9.916;2024-03-23T02:40:38;100341.81;;;10.84;64.11
86680;BME280;77423;53.554;9.916;2024-03-23T02:43:04;100335.50;;;10.21;64.69
86680;BME280;77423;53.554;9.916;2024-03-23T02:45:29;100325.34;;;11.00;63.68
86680;BME280;77423;53.554;9.916;2024-03-23T02:47:54;100327.97;;;11.14;63.35
86680;BME280;77423;53.554;9.916;2024-03-23T02:50:21;100322.72;;;11.39;62.68
86680;BME280;77423;53.554;9.916;2024-03-23T02:52:47;100325.34;;;11.03;62.90
86680;BME280;77423;53.554;9.916;2024-03-23T02:55:12;100327.94;;;11.40;62.63
86680;BME280;77423;53.554;9.916;2024-03-23T02:57:38;100322.72;;;11.19;63.12
86680;BME280;77423;53.554;9.916;2024-03-23T03:00:04;100319.25;;;11.51;62.32
86680;BME280;77423;53.554;9.916;2024-03-23T03:02:30;100312.31;;;11.14;62.99
86680;BME280;77423;53.554;9.916;2024-03-23T03:04:55;100310.56;;;11.25;62.32
86680;BME280;77423;53.554;9.916;2024-03-23T03:07:20;100302.75;;;11.39;62.91
86680;BME280;77423;53.554;9.916;2024-03-23T03:09:46;100301.00;;;11.10;62.92
86680;BME280;77423;53.554;9.916;2024-03-23T03:12:11;100287.09;;;11.07;63.35
86680;BME280;77423;53.554;9.916;2024-03-23T03:14:36;100286.22;;;11.03;62.97
86680;BME280;77423;53.554;9.916;2024-03-23T03:17:02;100284.47;;;11.21;62.59
86680;BME280;77423;53.554;9.916;2024-03-23T03:19:27;100286.19;;;11.09;63.21
86680;BME280;77423;53.554;9.916;2024-03-23T03:21:53;100295.78;;;11.09;63.12
86680;BME280;77423;53.554;9.916;2024-03-23T03:24:18;100287.94;;;11.12;63.07
86680;BME280;77423;53.554;9.916;2024-03-23T03:26:44;100285.31;;;10.70;63.34
86680;BME280;77423;53.554;9.916;2024-03-23T03:29:09;100293.91;;;10.41;64.94
86680;BME280;77423;53.554;9.916;2024-03-23T03:31:35;100277.53;;;11.15;62.90
86680;BME280;77423;53.554;9.916;2024-03-23T03:34:00;100269.69;;;11.35;62.49
86680;BME280;77423;53.554;9.916;2024-03-23T03:36:26;100274.03;;;11.35;62.52
86680;BME280;77423;53.554;9.916;2024-03-23T03:38:51;100269.72;;;11.14;62.82
86680;BME280;77423;53.554;9.916;2024-03-23T03:41:16;100261.81;;;10.56;63.46
86680;BME280;77423;53.554;9.916;2024-03-23T03:43:41;100262.69;;;10.66;63.96
86680;BME280;77423;53.554;9.916;2024-03-23T03:46:07;100253.16;;;11.02;63.33
86680;BME280;77423;53.554;9.916;2024-03-23T03:48:36;100248.78;;;11.38;62.27
86680;BME280;77423;53.554;9.916;2024-03-23T03:51:01;100250.56;;;10.96;62.36
86680;BME280;77423;53.554;9.916;2024-03-23T03:53:26;100249.69;;;10.78;62.92
86680;BME280;77423;53.554;9.916;2024-03-23T03:55:52;100243.56;;;10.56;64.30
86680;BME280;77423;53.554;9.916;2024-03-23T03:58:17;100250.34;;;10.06;64.86
86680;BME280;77423;53.554;9.916;2024-03-23T04:00:42;100248.69;;;10.30;65.39
86680;BME280;77423;53.554;9.916;2024-03-23T04:03:08;100240.97;;;10.66;64.33
86680;BME280;77423;53.554;9.916;2024-03-23T04:05:33;100236.66;;;10.69;63.64
86680;BME280;77423;53.554;9.916;2024-03-23T04:07:58;100233.16;;;10.78;63.59
86680;BME280;77423;53.554;9.916;2024-03-23T04:10:24;100229.66;;;10.59;63.42
86680;BME280;77423;53.554;9.916;2024-03-23T04:12:50;100235.78;;;11.07;63.30
86680;BME280;77423;53.554;9.916;2024-03-23T04:15:15;100239.25;;;10.92;63.25
86680;BME280;77423;53.554;9.916;2024-03-23T04:17:41;100239.28;;;10.89;63.25
86680;BME280;77423;53.554;9.916;2024-03-23T04:20:08;100225.34;;;10.64;63.58
86680;BME280;77423;53.554;9.916;2024-03-23T04:22:38;100223.59;;;11.06;63.42
86680;BME280;77423;53.554;9.916;2024-03-23T04:25:04;100215.72;;;11.31;62.64
86680;BME280;77423;53.554;9.916;2024-03-23T04:27:32;100203.63;;;10.91;62.82
86680;BME280;77423;53.554;9.916;2024-03-23T04:29:58;100198.38;;;11.04;63.13
86680;BME280;77423;53.554;9.916;2024-03-23T04:32:23;100203.59;;;11.15;62.30
86680;BME280;77423;53.554;9.916;2024-03-23T04:34:48;100214.03;;;10.68;63.25
86680;BME280;77423;53.554;9.916;2024-03-23T04:37:14;100227.91;;;10.42;64.19
86680;BME280;77423;53.554;9.916;2024-03-23T04:39:39;100235.78;;;10.61;63.61
86680;BME280;77423;53.554;9.916;2024-03-23T04:42:05;100240.09;;;11.16;62.16
86680;BME280;77423;53.554;9.916;2024-03-23T04:44:30;100238.38;;;11.07;62.16
86680;BME280;77423;53.554;9.916;2024-03-23T04:46:57;100247.72;;;9.99;65.05
86680;BME280;77423;53.554;9.916;2024-03-23T04:49:22;100249.28;;;9.61;66.12
86680;BME280;77423;53.554;9.916;2024-03-23T04:51:47;100251.16;;;9.90;66.11
86680;BME280;77423;53.554;9.916;2024-03-23T04:54:13;100253.91;;;10.27;65.52
86680;BME280;77423;53.554;9.916;2024-03-23T04:56:38;100235.59;;;10.13;65.17
86680;BME280;77423;53.554;9.916;2024-03-23T04:59:03;100231.00;;;9.52;67.20
86680;BME280;77423;53.554;9.916;2024-03-23T05:01:30;100217.03;;;9.36;66.99
86680;BME280;77423;53.554;9.916;2024-03-23T05:03:56;100210.44;;;10.18;65.60
86680;BME280;77423;53.554;9.916;2024-03-23T05:06:22;100209.72;;;10.59;64.27
86680;BME280;77423;53.554;9.916;2024-03-23T05:08:47;100215.69;;;10.24;64.74
86680;BME280;77423;53.554;9.916;2024-03-23T05:11:13;100216.47;;;10.08;64.82
86680;BME280;77423;53.554;9.916;2024-03-23T05:13:38;100208.81;;;10.53;63.89
86680;BME280;77423;53.554;9.916;2024-03-23T05:16:03;100204.47;;;10.53;63.84
86680;BME280;77423;53.554;9.916;2024-03-23T05:18:29;100213.16;;;10.37;64.62
86680;BME280;77423;53.554;9.916;2024-03-23T05:20:58;100206.97;;;10.08;64.46
86680;BME280;77423;53.554;9.916;2024-03-23T05:23:24;100208.72;;;10.23;64.66
86680;BME280;77423;53.554;9.916;2024-03-23T05:25:49;100203.59;;;10.59;63.69
86680;BME280;77423;53.554;9.916;2024-03-23T05:28:15;100207.09;;;10.52;63.66
86680;BME280;77423;53.554;9.916;2024-03-23T05:30:40;100203.63;;;10.56;63.36
86680;BME280;77423;53.554;9.916;2024-03-23T05:33:06;100205.25;;;10.32;64.36
86680;BME280;77423;53.554;9.916;2024-03-23T05:35:32;100204.47;;;10.44;63.71
86680;BME280;77423;53.554;9.916;2024-03-23T05:37:57;100201.88;;;10.63;63.17
86680;BME280;77423;53.554;9.916;2024-03-23T05:40:24;100198.41;;;10.76;62.68
86680;BME280;77423;53.554;9.916;2024-03-23T05:42:49;100192.31;;;10.69;62.75
86680;BME280;77423;53.554;9.916;2024-03-23T05:45:18;100194.94;;;11.00;62.44
86680;BME280;77423;53.554;9.916;2024-03-23T05:47:43;100187.81;;;9.91;64.22
86680;BME280;77423;53.554;9.916;2024-03-23T05:50:09;100168.84;;;10.75;62.64
86680;BME280;77423;53.554;9.916;2024-03-23T05:52:37;100168.88;;;10.78;62.98
86680;BME280;77423;53.554;9.916;2024-03-23T05:55:03;100171.47;;;10.57;62.56
86680;BME280;77423;53.554;9.916;2024-03-23T05:57:28;100175.72;;;10.19;63.99
86680;BME280;77423;53.554;9.916;2024-03-23T05:59:54;100173.19;;;10.58;63.10
86680;BME280;77423;53.554;9.916;2024-03-23T06:02:19;100173.19;;;10.55;62.40
86680;BME280;77423;53.554;9.916;2024-03-23T06:04:45;100174.88;;;10.34;63.47
86680;BME280;77423;53.554;9.916;2024-03-23T06:07:11;100174.94;;;10.43;63.44
86680;BME280;77423;53.554;9.916;2024-03-23T06:09:39;100171.47;;;10.57;62.95
86680;BME280;77423;53.554;9.916;2024-03-23T06:12:05;100173.19;;;10.84;62.51
86680;BME280;77423;53.554;9.916;2024-03-23T06:14:30;100175.78;;;10.45;62.42
86680;BME280;77423;53.554;9.916;2024-03-23T06:16:55;100180.16;;;10.87;62.30
86680;BME280;77423;53.554;9.916;2024-03-23T06:19:21;100180.16;;;10.64;62.60
86680;BME280;77423;53.554;9.916;2024-03-23T06:21:46;100180.13;;;10.37;63.37
86680;BME280;77423;53.554;9.916;2024-03-23T06:24:12;100176.66;;;10.54;63.59
86680;BME280;77423;53.554;9.916;2024-03-23T06:26:37;100172.31;;;10.59;62.41
86680;BME280;77423;53.554;9.916;2024-03-23T06:29:02;100169.69;;;10.34;63.69
86680;BME280;77423;53.554;9.916;2024-03-23T06:31:28;100164.50;;;10.60;63.08
86680;BME280;77423;53.554;9.916;2024-03-23T06:33:55;100172.16;;;9.86;64.22
86680;BME280;77423;53.554;9.916;2024-03-23T06:36:20;100174.00;;;10.29;63.75
86680;BME280;77423;53.554;9.916;2024-03-23T06:38:45;100167.06;;;11.11;61.83
86680;BME280;77423;53.554;9.916;2024-03-23T06:41:11;100171.44;;;10.37;62.98
86680;BME280;77423;53.554;9.916;2024-03-23T06:43:36;100158.44;;;10.71;62.13
86680;BME280;77423;53.554;9.916;2024-03-23T06:46:03;100157.56;;;10.86;62.13
86680;BME280;77423;53.554;9.916;2024-03-23T06:48:29;100157.50;;;11.15;61.47
86680;BME280;77423;53.554;9.916;2024-03-23T06:50:57;100165.31;;;11.12;60.71
86680;BME280;77423;53.554;9.916;2024-03-23T06:53:23;100151.47;;;10.96;61.39
86680;BME280;77423;53.554;9.916;2024-03-23T06:55:54;100158.38;;;10.27;62.61
86680;BME280;77423;53.554;9.916;2024-03-23T06:58:21;100160.06;;;10.10;62.91
86680;BME280;77423;53.554;9.916;2024-03-23T07:00:46;100162.66;;;10.02;63.79
86680;BME280;77423;53.554;9.916;2024-03-23T07:03:12;100163.66;;;10.57;62.56
86680;BME280;77423;53.554;9.916;2024-03-23T07:05:37;100159.22;;;10.17;63.21
86680;BME280;77423;53.554;9.916;2024-03-23T07:08:03;100154.94;;;10.76;62.18
86680;BME280;77423;53.554;9.916;2024-03-23T07:10:28;100157.56;;;10.75;62.30
86680;BME280;77423;53.554;9.916;2024-03-23T07:12:53;100155.75;;;11.16;61.02
86680;BME280;77423;53.554;9.916;2024-03-23T07:15:19;100154.88;;;11.20;61.24
86680;BME280;77423;53.554;9.916;2024-03-23T07:17:47;100150.53;;;11.23;60.69
86680;BME280;77423;53.554;9.916;2024-03-23T07:20:12;100157.38;;;11.61;60.60
86680;BME280;77423;53.554;9.916;2024-03-23T07:22:38;100164.44;;;11.21;60.93
86680;BME280;77423;53.554;9.916;2024-03-23T07:25:05;100160.09;;;11.35;61.17
86680;BME280;77423;53.554;9.916;2024-03-23T07:27:31;100161.63;;;11.79;59.82
86680;BME280;77423;53.554;9.916;2024-03-23T07:29:56;100163.50;;;11.42;60.12
86680;BME280;77423;53.554;9.916;2024-03-23T07:32:21;100169.59;;;10.02;63.12
86680;BME280;77423;53.554;9.916;2024-03-23T07:34:47;100150.59;;;10.92;60.66
86680;BME280;77423;53.554;9.916;2024-03-23T07:37:12;100154.03;;;11.15;60.27
86680;BME280;77423;53.554;9.916;2024-03-23T07:39:39;100156.63;;;10.26;61.67
86680;BME280;77423;53.554;9.916;2024-03-23T07:42:04;100154.84;;;11.40;60.51
86680;BME280;77423;53.554;9.916;2024-03-23T07:44:30;100146.97;;;11.51;60.75
86680;BME280;77423;53.554;9.916;2024-03-23T07:46:55;100145.97;;;11.83;59.91
86680;BME280;77423;53.554;9.916;2024-03-23T07:49:21;100147.84;;;12.88;59.40
86680;BME280;77423;53.554;9.916;2024-03-23T07:51:46;100141.31;;;12.34;58.84
86680;BME280;77423;53.554;9.916;2024-03-23T07:54:12;100140.50;;;12.26;57.92
86680;BME280;77423;53.554;9.916;2024-03-23T07:56:37;100141.63;;;11.77;59.49
86680;BME280;77423;53.554;9.916;2024-03-23T07:59:02;100137.44;;;11.43;59.50
86680;BME280;77423;53.554;9.916;2024-03-23T08:01:28;100137.84;;;12.30;58.19
86680;BME280;77423;53.554;9.916;2024-03-23T08:03:54;100135.19;;;12.35;57.91
86680;BME280;77423;53.554;9.916;2024-03-23T08:06:20;100129.84;;;12.54;57.78
86680;BME280;77423;53.554;9.916;2024-03-23T08:08:49;100137.38;;;12.86;57.32
86680;BME280;77423;53.554;9.916;2024-03-23T08:11:15;100132.13;;;12.89;56.30
86680;BME280;77423;53.554;9.916;2024-03-23T08:13:42;100128.88;;;12.64;57.12
86680;BME280;77423;53.554;9.916;2024-03-23T08:16:10;100134.59;;;11.94;58.09
86680;BME280;77423;53.554;9.916;2024-03-23T08:18:35;100131.09;;;13.04;56.06
86680;BME280;77423;53.554;9.916;2024-03-23T08:21:05;100126.53;;;12.27;56.85
86680;BME280;77423;53.554;9.916;2024-03-23T08:23:32;100133.09;;;12.80;56.97
86680;BME280;77423;53.554;9.916;2024-03-23T08:26:05;100116.63;;;12.68;56.49
86680;BME280;77423;53.554;9.916;2024-03-23T08:28:30;100127.59;;;13.07;55.46
86680;BME280;77423;53.554;9.916;2024-03-23T08:30:56;100116.84;;;13.30;55.40
86680;BME280;77423;53.554;9.916;2024-03-23T08:33:22;100122.25;;;13.16;55.39
86680;BME280;77423;53.554;9.916;2024-03-23T08:35:58;100115.25;;;13.20;55.23
86680;BME280;77423;53.554;9.916;2024-03-23T08:38:24;100117.88;;;13.20;55.31
86680;BME280;77423;53.554;9.916;2024-03-23T08:41:04;100116.59;;;12.72;55.04
86680;BME280;77423;53.554;9.916;2024-03-23T08:43:30;100110.88;;;12.27;56.09
86680;BME280;77423;53.554;9.916;2024-03-23T08:48:38;100107.34;;;13.23;54.23
86680;BME280;77423;53.554;9.916;2024-03-23T08:51:04;100104.03;;;13.07;54.61
86680;BME280;77423;53.554;9.916;2024-03-23T08:53:31;100099.03;;;12.88;54.61
86680;BME280;77423;53.554;9.916;2024-03-23T08:55:57;100101.72;;;13.60;53.59
86680;BME280;77423;53.554;9.916;2024-03-23T08:58:24;100100.06;;;13.51;53.64
86680;BME280;77423;53.554;9.916;2024-03-23T09:00:53;100093.13;;;13.47;52.59
86680;BME280;77423;53.554;9.916;2024-03-23T09:03:22;100097.66;;;14.00;52.31
86680;BME280;77423;53.554;9.916;2024-03-23T09:05:47;100090.00;;;14.42;50.38
86680;BME280;77423;53.554;9.916;2024-03-23T09:08:13;100087.00;;;14.10;49.68
86680;BME280;77423;53.554;9.916;2024-03-23T09:10:38;100084.91;;;14.32;49.72
86680;BME280;77423;53.554;9.916;2024-03-23T09:13:04;100090.47;;;14.12;50.02
86680;BME280;77423;53.554;9.916;2024-03-23T09:15:29;100093.72;;;13.68;50.95
86680;BME280;77423;53.554;9.916;2024-03-23T09:17:56;100100.75;;;12.91;52.21
86680;BME280;77423;53.554;9.916;2024-03-23T09:20:21;100099.53;;;13.21;51.12
86680;BME280;77423;53.554;9.916;2024-03-23T09:22:48;100098.66;;;13.22;50.21
86680;BME280;77423;53.554;9.916;2024-03-23T09:25:13;100100.00;;;12.76;50.81
86680;BME280;77423;53.554;9.916;2024-03-23T09:27:39;100090.81;;;12.30;50.81
86680;BME280;77423;53.554;9.916;2024-03-23T09:30:04;100094.22;;;12.39;50.42
86680;BME280;77423;53.554;9.916;2024-03-23T09:32:30;100096.91;;;12.33;50.00
86680;BME280;77423;53.554;9.916;2024-03-23T09:34:55;100100.53;;;12.11;50.87
86680;BME280;77423;53.554;9.916;2024-03-23T09:37:21;100088.47;;;12.94;49.53
86680;BME280;77423;53.554;9.916;2024-03-23T09:39:46;100089.78;;;12.47;49.76
86680;BME280;77423;53.554;9.916;2024-03-23T09:42:11;100083.34;;;12.84;49.85
86680;BME280;77423;53.554;9.916;2024-03-23T09:44:37;100089.78;;;12.47;50.92
86680;BME280;77423;53.554;9.916;2024-03-23T09:47:02;100086.91;;;12.76;50.09
86680;BME280;77423;53.554;9.916;2024-03-23T09:49:28;100084.44;;;13.46;48.38
86680;BME280;77423;53.554;9.916;2024-03-23T09:51:54;100082.97;;;13.18;48.77
86680;BME280;77423;53.554;9.916;2024-03-23T09:54:20;100082.25;;;13.06;48.88
86680;BME280;77423;53.554;9.916;2024-03-23T09:56:46;100081.03;;;13.35;49.00
86680;BME280;77423;53.554;9.916;2024-03-23T09:59:12;100072.09;;;12.75;50.20
86680;BME280;77423;53.554;9.916;2024-03-23T10:01:37;100069.19;;;13.76;49.53
86680;BME280;77423;53.554;9.916;2024-03-23T10:04:03;100072.13;;;13.50;49.51
86680;BME280;77423;53.554;9.916;2024-03-23T10:06:28;100076.34;;;12.87;49.40
86680;BME280;77423;53.554;9.916;2024-03-23T10:08:53;100057.63;;;14.44;47.25
86680;BME280;77423;53.554;9.916;2024-03-23T10:11:20;100051.53;;;14.92;45.60
86680;BME280;77423;53.554;9.916;2024-03-23T10:13:46;100040.25;;;15.31;44.47
86680;BME280;77423;53.554;9.916;2024-03-23T10:16:12;100042.09;;;14.32;45.22
86680;BME280;77423;53.554;9.916;2024-03-23T10:18:38;100042.16;;;14.29;46.13
86680;BME280;77423;53.554;9.916;2024-03-23T10:21:10;100040.19;;;14.42;45.94
86680;BME280;77423;53.554;9.916;2024-03-23T10:23:40;100044.66;;;13.80;44.90
86680;BME280;77423;53.554;9.916;2024-03-23T10:26:22;100042.97;;;13.76;46.89
86680;BME280;77423;53.554;9.916;2024-03-23T10:28:55;100037.50;;;13.92;47.66
86680;BME280;77423;53.554;9.916;2024-03-23T10:31:23;100045.16;;;14.04;49.93
86680;BME280;77423;53.554;9.916;2024-03-23T10:33:49;100048.25;;;13.05;50.81
86680;BME280;77423;53.554;9.916;2024-03-23T10:36:14;100052.81;;;12.86;51.65
86680;BME280;77423;53.554;9.916;2024-03-23T10:38:41;100056.00;;;13.11;52.27
86680;BME280;77423;53.554;9.916;2024-03-23T10:41:09;100047.41;;;13.71;52.24
86680;BME280;77423;53.554;9.916;2024-03-23T10:43:36;100048.06;;;13.20;53.00
86680;BME280;77423;53.554;9.916;2024-03-23T10:46:01;100039.31;;;13.87;53.54
86680;BME280;77423;53.554;9.916;2024-03-23T10:48:26;100046.56;;;13.01;54.21
86680;BME280;77423;53.554;9.916;2024-03-23T10:50:53;100037.69;;;13.14;54.01
86680;BME280;77423;53.554;9.916;2024-03-23T10:53:18;100037.56;;;13.22;53.37
86680;BME280;77423;53.554;9.916;2024-03-23T10:55:44;100034.66;;;12.73;53.78
86680;BME280;77423;53.554;9.916;2024-03-23T11:01:11;100028.63;;;13.41;51.90
86680;BME280;77423;53.554;9.916;2024-03-23T11:03:38;100020.59;;;14.64;49.36
86680;BME280;77423;53.554;9.916;2024-03-23T11:06:07;100009.38;;;15.81;47.82
86680;BME280;77423;53.554;9.916;2024-03-23T11:08:36;100002.59;;;16.43;47.03
86680;BME280;77423;53.554;9.916;2024-03-23T11:11:18;99999.91;;;17.39;43.97
86680;BME280;77423;53.554;9.916;2024-03-23T11:13:48;100006.53;;;16.27;42.73
86680;BME280;77423;53.554;9.916;2024-03-23T11:16:17;100010.78;;;15.16;43.67
86680;BME280;77423;53.554;9.916;2024-03-23T11:18:43;100017.63;;;14.81;44.09
86680;BME280;77423;53.554;9.916;2024-03-23T11:21:09;100022.13;;;13.69;45.51
86680;BME280;77423;53.554;9.916;2024-03-23T11:23:34;100012.94;;;13.99;46.31
86680;BME280;77423;53.554;9.916;2024-03-23T11:26:00;100007.81;;;14.43;45.02
86680;BME280;77423;53.554;9.916;2024-03-23T11:28:25;100017.88;;;15.54;44.05
86680;BME280;77423;53.554;9.916;2024-03-23T11:30:51;100002.06;;;16.63;42.19
86680;BME280;77423;53.554;9.916;2024-03-23T11:33:16;100000.91;;;14.87;44.65
86680;BME280;77423;53.554;9.916;2024-03-23T11:35:42;100000.84;;;14.90;44.78
86680;BME280;77423;53.554;9.916;2024-03-23T11:40:44;99999.63;;;15.47;44.20
86680;BME280;77423;53.554;9.916;2024-03-23T11:43:16;99981.38;;;17.71;39.97
86680;BME280;77423;53.554;9.916;2024-03-23T11:45:46;99963.41;;;19.32;39.07
86680;BME280;77423;53.554;9.916;2024-03-23T11:48:16;99968.34;;;18.95;36.31
86680;BME280;77423;53.554;9.916;2024-03-23T11:50:49;99969.03;;;19.46;36.40
86680;BME280;77423;53.554;9.916;2024-03-23T11:53:22;99979.13;;;19.37;35.00
86680;BME280;77423;53.554;9.916;2024-03-23T11:58:13;100008.56;;;16.15;38.66
86680;BME280;77423;53.554;9.916;2024-03-23T12:00:39;100029.13;;;14.74;43.98
86680;BME280;77423;53.554;9.916;2024-03-23T12:03:05;100038.59;;;13.77;42.69
86680;BME280;77423;53.554;9.916;2024-03-23T12:05:34;100046.16;;;12.54;47.10
86680;BME280;77423;53.554;9.916;2024-03-23T12:08:19;100038.31;;;12.54;48.93
86680;BME280;77423;53.554;9.916;2024-03-23T12:10:48;100039.28;;;12.45;46.68
86680;BME280;77423;53.554;9.916;2024-03-23T12:13:21;100024.50;;;12.39;48.21
86680;BME280;77423;53.554;9.916;2024-03-23T12:15:49;100022.63;;;12.55;47.09
86680;BME280;77423;53.554;9.916;2024-03-23T12:18:15;100010.19;;;12.77;46.53
86680;BME280;77423;53.554;9.916;2024-03-23T12:20:41;100013.34;;;12.25;46.08
86680;BME280;77423;53.554;9.916;2024-03-23T12:23:10;100021.88;;;12.39;47.36
86680;BME280;77423;53.554;9.916;2024-03-23T12:25:37;100019.78;;;12.75;47.12
86680;BME280;77423;53.554;9.916;2024-03-23T12:28:02;100006.03;;;15.34;42.80
86680;BME280;77423;53.554;9.916;2024-03-23T12:30:28;100001.31;;;17.23;40.06
86680;BME280;77423;53.554;9.916;2024-03-23T12:32:53;100028.19;;;15.21;43.61
86680;BME280;77423;53.554;9.916;2024-03-23T12:35:19;100043.00;;;13.73;47.28
86680;BME280;77423;53.554;9.916;2024-03-23T12:37:44;100062.38;;;11.79;51.35
86680;BME280;77423;53.554;9.916;2024-03-23T12:40:10;100067.78;;;11.49;53.32
86680;BME280;77423;53.554;9.916;2024-03-23T12:42:35;100073.25;;;10.82;54.03
86680;BME280;77423;53.554;9.916;2024-03-23T12:45:01;100063.59;;;11.17;53.84
86680;BME280;77423;53.554;9.916;2024-03-23T12:47:26;100066.88;;;11.57;53.51
86680;BME280;77423;53.554;9.916;2024-03-23T12:49:52;100059.25;;;11.12;54.06
86680;BME280;77423;53.554;9.916;2024-03-23T12:52:20;100051.91;;;11.95;53.95
86680;BME280;77423;53.554;9.916;2024-03-23T12:54:46;100070.56;;;11.11;52.71
86680;BME280;77423;53.554;9.916;2024-03-23T12:57:12;100065.34;;;11.18;53.30
86680;BME280;77423;53.554;9.916;2024-03-23T12:59:37;100053.78;;;11.63;52.23
86680;BME280;77423;53.554;9.916;2024-03-23T13:02:03;100062.56;;;11.49;52.70
86680;BME280;77423;53.554;9.916;2024-03-23T13:04:28;100057.28;;;11.58;52.43
86680;BME280;77423;53.554;9.916;2024-03-23T13:06:53;100064.88;;;12.01;51.63
86680;BME280;77423;53.554;9.916;2024-03-23T13:09:18;100056.06;;;12.16;51.79
86680;BME280;77423;53.554;9.916;2024-03-23T13:11:44;100061.16;;;12.35;50.00
86680;BME280;77423;53.554;9.916;2024-03-23T13:14:09;100062.75;;;12.54;50.47
86680;BME280;77423;53.554;9.916;2024-03-23T13:16:35;100057.66;;;12.36;50.19
86680;BME280;77423;53.554;9.916;2024-03-23T13:19:00;100057.28;;;11.64;52.17
86680;BME280;77423;53.554;9.916;2024-03-23T13:21:26;100058.00;;;11.89;51.37
86680;BME280;77423;53.554;9.916;2024-03-23T13:23:51;100052.91;;;11.68;52.05
86680;BME280;77423;53.554;9.916;2024-03-23T13:26:17;100058.94;;;11.74;51.82
86680;BME280;77423;53.554;9.916;2024-03-23T13:28:42;100060.88;;;11.41;52.47
86680;BME280;77423;53.554;9.916;2024-03-23T13:31:07;100070.28;;;11.69;52.78
86680;BME280;77423;53.554;9.916;2024-03-23T13:33:33;100055.88;;;10.67;54.00
86680;BME280;77423;53.554;9.916;2024-03-23T13:35:59;100054.03;;;11.08;53.44
86680;BME280;77423;53.554;9.916;2024-03-23T13:38:24;100046.97;;;12.60;51.24
86680;BME280;77423;53.554;9.916;2024-03-23T13:40:54;100038.97;;;12.74;50.67
86680;BME280;77423;53.554;9.916;2024-03-23T13:43:20;100050.91;;;13.00;51.43
86680;BME280;77423;53.554;9.916;2024-03-23T13:45:51;100053.34;;;12.33;51.28